createdAt,value
2019-02-16T00:04:13.003Z,9.20
2019-02-16T00:06:41.432Z,14.37
2019-02-16T00:09:09.956Z,14.80
2019-02-16T00:11:38.412Z,9.30
2019-02-16T00:14:26.163Z,15.53
2019-02-16T00:16:54.619Z,9.67
2019-02-16T00:19:23.048Z,10.00
2019-02-16T00:21:51.502Z,12.47
2019-02-16T00:24:39.150Z,9.33
2019-02-16T00:27:07.591Z,9.73
2019-02-16T00:29:36.016Z,8.20
2019-02-16T00:34:38.863Z,9.33
2019-02-16T00:39:41.316Z,10.00
2019-02-16T00:42:09.744Z,12.00
2019-02-16T00:44:38.169Z,9.30
2019-02-16T00:47:06.637Z,7.00
2019-02-16T00:49:35.067Z,16.43
2019-02-16T00:52:03.776Z,11.33
2019-02-16T00:54:32.233Z,10.63
2019-02-16T00:57:00.659Z,7.60
2019-02-16T00:59:48.301Z,8.50
2019-02-16T01:02:16.729Z,7.10
2019-02-16T01:04:45.171Z,7.53
2019-02-16T01:10:06.403Z,9.17
2019-02-16T01:12:54.049Z,8.23
2019-02-16T01:15:22.474Z,6.60
2019-02-16T01:17:50.908Z,11.90
2019-02-16T01:20:19.359Z,8.20
2019-02-16T01:22:48.061Z,11.63
2019-02-16T01:25:17.945Z,11.83
2019-02-16T01:27:46.721Z,15.87
2019-02-16T01:30:34.411Z,7.77
2019-02-16T01:35:36.868Z,18.20
2019-02-16T01:38:24.578Z,12.87
2019-02-16T01:41:12.325Z,17.40
2019-02-16T01:43:40.790Z,11.50
2019-02-16T01:46:09.221Z,14.00
2019-02-16T01:48:37.656Z,9.03
2019-02-16T01:51:06.112Z,9.87
2019-02-16T01:53:34.544Z,19.70
2019-02-16T01:56:03.062Z,13.30
2019-02-16T01:58:31.880Z,20.97
2019-02-16T02:01:00.308Z,16.10
2019-02-16T02:03:28.744Z,12.00
2019-02-16T02:06:16.904Z,7.60
2019-02-16T02:08:45.669Z,13.60
2019-02-16T02:11:14.105Z,10.57
2019-02-16T02:13:42.652Z,16.40
2019-02-16T02:16:11.420Z,6.17
2019-02-16T02:18:40.210Z,14.53
2019-02-16T02:21:09.022Z,7.50
2019-02-16T02:23:37.454Z,11.40
2019-02-16T02:26:25.152Z,9.60
2019-02-16T02:28:53.576Z,7.10
2019-02-16T02:31:22.022Z,12.07
2019-02-16T02:33:50.469Z,9.80
2019-02-16T02:36:18.890Z,8.80
2019-02-16T02:38:47.315Z,7.97
2019-02-16T02:41:15.775Z,7.80
2019-02-16T02:44:24.137Z,10.17
2019-02-16T02:49:26.261Z,9.33
2019-02-16T02:51:54.724Z,10.93
2019-02-16T02:54:23.153Z,10.00
2019-02-16T02:56:51.584Z,9.83
2019-02-16T02:59:20.333Z,9.07
2019-02-16T03:01:48.756Z,12.03
2019-02-16T03:04:17.278Z,10.63
2019-02-16T03:09:19.620Z,9.93
2019-02-16T03:11:48.049Z,7.40
2019-02-16T03:16:50.759Z,11.73
2019-02-16T03:19:19.209Z,20.13
2019-02-16T03:21:47.645Z,8.47
2019-02-16T03:24:16.074Z,8.10
2019-02-16T03:33:25.557Z,11.53
2019-02-16T03:36:33.951Z,10.40
2019-02-16T03:39:42.457Z,12.03
2019-02-16T03:42:11.202Z,13.90
2019-02-16T03:44:58.972Z,7.90
2019-02-16T03:47:27.414Z,13.03
2019-02-16T03:49:55.837Z,10.87
2019-02-16T03:52:24.312Z,13.60
2019-02-16T03:54:53.081Z,8.47
2019-02-16T04:00:49.258Z,13.50
2019-02-16T04:03:17.686Z,7.93
2019-02-16T04:06:05.296Z,14.53
2019-02-16T04:08:52.971Z,8.00
2019-02-16T04:11:40.760Z,14.80
2019-02-16T04:14:09.286Z,15.47
2019-02-16T04:16:37.712Z,9.13
2019-02-16T04:19:25.489Z,11.27
2019-02-16T04:21:54.275Z,13.53
2019-02-16T04:24:22.768Z,7.90
2019-02-16T04:26:51.241Z,8.13
2019-02-16T04:29:19.680Z,13.53
2019-02-16T04:31:48.112Z,6.90
2019-02-16T04:34:17.001Z,17.80
2019-02-16T04:36:45.436Z,15.83
2019-02-16T04:39:13.871Z,8.30
2019-02-16T04:41:42.337Z,8.67
2019-02-16T04:44:10.845Z,9.40
2019-02-16T04:46:39.280Z,12.57
2019-02-16T04:51:41.443Z,10.27
2019-02-16T04:54:10.164Z,8.40
2019-02-16T04:56:38.948Z,14.80
2019-02-16T04:59:07.373Z,9.30
2019-02-16T05:01:35.803Z,11.10
2019-02-16T05:04:04.258Z,10.10
2019-02-16T05:06:32.686Z,10.07
2019-02-16T05:09:01.476Z,12.03
2019-02-16T05:14:03.900Z,7.77
2019-02-16T05:16:32.418Z,9.17
2019-02-16T05:19:00.885Z,10.43
2019-02-16T05:21:29.314Z,8.53
2019-02-16T05:23:57.746Z,10.10
2019-02-16T05:26:26.666Z,9.97
2019-02-16T05:28:55.092Z,8.73
2019-02-16T05:31:23.524Z,14.73
2019-02-16T05:33:51.987Z,13.83
2019-02-16T05:36:20.414Z,7.20
2019-02-16T05:38:48.928Z,6.10
2019-02-16T05:41:17.397Z,11.43
2019-02-16T05:43:45.825Z,8.20
2019-02-16T05:46:33.616Z,8.20
2019-02-16T05:49:02.044Z,8.03
2019-02-16T05:51:30.507Z,12.00
2019-02-16T05:56:33.230Z,9.87
2019-02-16T05:59:01.698Z,13.13
2019-02-16T06:01:30.219Z,7.73
2019-02-16T06:03:58.910Z,8.27
2019-02-16T06:09:02.124Z,8.87
2019-02-16T06:11:30.654Z,11.37
2019-02-16T06:13:59.368Z,12.30
2019-02-16T06:16:28.601Z,8.60
2019-02-16T06:18:57.351Z,9.20
2019-02-16T06:21:45.034Z,13.13
2019-02-16T06:24:13.576Z,13.90
2019-02-16T06:26:42.289Z,9.60
2019-02-16T06:29:10.717Z,8.57
2019-02-16T06:31:39.277Z,9.33
2019-02-16T06:34:07.978Z,8.37
2019-02-16T06:39:25.788Z,7.73
2019-02-16T06:41:55.085Z,8.47
2019-02-16T06:44:23.517Z,7.90
2019-02-16T06:46:52.267Z,19.60
2019-02-16T06:49:20.970Z,8.80
2019-02-16T06:51:49.514Z,13.83
2019-02-16T06:54:18.270Z,10.87
2019-02-16T06:57:05.818Z,6.37
2019-02-16T06:59:34.279Z,8.10
2019-02-16T07:02:02.701Z,8.80
2019-02-16T07:04:31.123Z,6.93
2019-02-16T07:06:59.644Z,8.47
2019-02-16T07:09:28.073Z,6.47
2019-02-16T07:11:56.593Z,8.93
2019-02-16T07:14:25.193Z,7.80
2019-02-16T07:16:55.262Z,9.10
2019-02-16T07:19:27.768Z,7.97
2019-02-16T07:21:56.697Z,8.30
2019-02-16T07:24:25.194Z,7.83
2019-02-16T07:26:53.621Z,16.37
2019-02-16T07:29:22.414Z,10.70
2019-02-16T07:31:50.832Z,8.80
2019-02-16T07:34:19.272Z,9.10
2019-02-16T07:36:47.728Z,12.53
2019-02-16T07:39:16.158Z,12.47
2019-02-16T07:41:44.609Z,8.37
2019-02-16T07:44:31.385Z,12.23
2019-02-16T07:47:01.444Z,8.27
2019-02-16T07:49:48.299Z,7.97
2019-02-16T07:52:21.742Z,10.63
2019-02-16T07:55:01.565Z,15.43
2019-02-16T07:57:32.003Z,10.40
2019-02-16T08:00:02.270Z,13.23
2019-02-16T08:02:32.441Z,11.43
2019-02-16T08:05:02.513Z,11.20
2019-02-16T08:07:35.369Z,19.90
2019-02-16T08:10:11.869Z,16.57
2019-02-16T08:12:44.904Z,16.50
2019-02-16T08:15:20.618Z,14.60
2019-02-16T08:17:50.690Z,15.60
2019-02-16T08:20:20.785Z,13.97
2019-02-16T08:23:00.060Z,12.53
2019-02-16T08:25:30.467Z,18.03
2019-02-16T08:28:09.782Z,16.97
2019-02-16T08:30:42.562Z,18.50
2019-02-16T08:33:18.985Z,17.10
2019-02-16T08:36:05.448Z,15.43
2019-02-16T08:38:35.567Z,13.00
2019-02-16T08:41:11.324Z,12.23
2019-02-16T08:43:50.226Z,11.43
2019-02-16T08:46:26.086Z,19.70
2019-02-16T08:49:01.885Z,11.97
2019-02-16T08:51:31.964Z,13.07
2019-02-16T08:54:08.016Z,12.57
2019-02-16T08:56:49.795Z,13.87
2019-02-16T08:59:25.643Z,12.93
2019-02-16T09:01:58.803Z,16.80
2019-02-16T09:04:47.064Z,17.87
2019-02-16T09:07:17.134Z,17.67
2019-02-16T09:09:47.217Z,16.20
2019-02-16T09:12:17.399Z,16.93
2019-02-16T09:14:52.944Z,14.90
2019-02-16T09:17:39.322Z,12.67
2019-02-16T09:20:18.960Z,10.10
2019-02-16T09:22:58.027Z,14.07
2019-02-16T09:25:37.387Z,12.93
2019-02-16T09:28:19.791Z,12.30
2019-02-16T09:30:49.859Z,12.63
2019-02-16T09:33:22.467Z,16.57
2019-02-16T09:35:58.005Z,10.77
2019-02-16T09:38:39.902Z,13.30
2019-02-16T09:41:19.436Z,13.23
2019-02-16T09:44:05.306Z,10.50
2019-02-16T09:46:38.350Z,9.63
2019-02-16T09:49:13.906Z,11.33
2019-02-16T09:51:50.291Z,11.90
2019-02-16T09:54:20.479Z,12.07
2019-02-16T09:56:50.553Z,11.53
2019-02-16T09:59:21.030Z,13.73
2019-02-16T10:01:57.086Z,18.73
2019-02-16T10:04:27.255Z,14.07
2019-02-16T10:07:00.514Z,12.50
2019-02-16T10:09:36.787Z,18.10
2019-02-16T10:12:25.195Z,20.77
2019-02-16T10:15:13.545Z,16.43
2019-02-16T10:17:43.704Z,24.70
2019-02-16T10:20:30.829Z,24.30
2019-02-16T10:23:06.933Z,18.80
2019-02-16T10:25:42.584Z,13.77
2019-02-16T10:28:15.316Z,20.87
2019-02-16T10:30:48.524Z,11.83
2019-02-16T10:33:18.595Z,14.43
2019-02-16T10:35:54.892Z,12.43
2019-02-16T10:38:27.644Z,14.67
2019-02-16T10:41:03.512Z,14.17
2019-02-16T10:43:48.588Z,10.67
2019-02-16T10:46:18.817Z,13.07
2019-02-16T10:48:58.127Z,16.83
2019-02-16T10:51:28.259Z,15.00
2019-02-16T10:54:04.788Z,11.83
2019-02-16T10:56:37.429Z,14.00
2019-02-16T10:59:10.019Z,26.33
2019-02-16T11:01:50.346Z,18.20
2019-02-16T11:04:20.508Z,28.07
2019-02-16T11:06:50.587Z,15.10
2019-02-16T11:09:29.776Z,17.13
2019-02-16T11:12:05.997Z,14.90
2019-02-16T11:14:36.104Z,17.53
2019-02-16T11:17:22.200Z,13.13
2019-02-16T11:20:04.433Z,17.33
2019-02-16T11:22:49.568Z,28.13
2019-02-16T11:25:36.305Z,13.83
2019-02-16T11:28:15.131Z,18.50
2019-02-16T11:31:01.734Z,18.07
2019-02-16T11:33:34.832Z,16.00
2019-02-16T11:36:08.275Z,14.40
2019-02-16T11:38:47.494Z,16.07
2019-02-16T11:41:19.234Z,17.90
2019-02-16T11:43:52.485Z,15.37
2019-02-16T11:46:22.694Z,28.93
2019-02-16T11:48:55.215Z,20.23
2019-02-16T11:51:25.354Z,16.73
2019-02-16T11:54:11.563Z,18.70
2019-02-16T11:56:59.774Z,20.70
2019-02-16T11:59:30.217Z,16.70
2019-02-16T12:02:09.273Z,16.63
2019-02-16T12:04:42.619Z,17.97
2019-02-16T12:07:12.696Z,17.07
2019-02-16T12:09:42.767Z,17.93
2019-02-16T12:12:12.885Z,18.40
2019-02-16T12:14:49.233Z,16.30
2019-02-16T12:17:19.414Z,16.93
2019-02-16T12:20:05.693Z,14.53
2019-02-16T12:22:41.460Z,17.13
2019-02-16T12:25:20.909Z,20.87
2019-02-16T12:27:57.150Z,23.90
2019-02-16T12:30:30.274Z,17.80
2019-02-16T12:33:12.489Z,18.10
2019-02-16T12:35:45.140Z,16.00
2019-02-16T12:38:15.401Z,20.77
2019-02-16T12:40:48.408Z,25.13
2019-02-16T12:43:34.690Z,18.77
2019-02-16T12:46:05.212Z,16.90
2019-02-16T12:49:12.183Z,17.43
2019-02-16T12:51:59.768Z,27.23
2019-02-16T12:54:47.585Z,18.27
2019-02-16T13:00:14.362Z,22.77
2019-02-16T13:08:30.268Z,25.20
2019-02-16T13:14:06.935Z,19.03
2019-02-16T13:22:38.649Z,17.73
2019-02-16T13:35:58.260Z,19.03
2019-02-16T13:38:45.712Z,18.67
2019-02-16T13:46:48.687Z,21.10
2019-02-16T13:52:25.709Z,22.13
2019-02-16T14:00:50.790Z,21.40
2019-02-16T14:06:27.159Z,16.00
2019-02-16T14:09:14.799Z,19.17
2019-02-16T14:12:21.702Z,15.90
2019-02-16T14:17:58.665Z,15.73
2019-02-16T14:20:27.093Z,16.13
2019-02-16T14:22:55.858Z,20.23
2019-02-16T14:25:45.633Z,19.37
2019-02-16T14:28:33.019Z,15.43
2019-02-16T14:31:01.482Z,21.00
2019-02-16T14:33:30.101Z,17.47
2019-02-16T14:35:58.566Z,16.93
2019-02-16T14:41:06.335Z,25.07
2019-02-16T14:43:34.795Z,29.37
2019-02-16T14:46:03.231Z,21.13
2019-02-16T14:48:31.692Z,22.30
2019-02-16T14:51:00.123Z,29.87
2019-02-16T14:53:28.571Z,23.77
2019-02-16T14:55:57.030Z,30.53
2019-02-16T14:58:25.465Z,30.50
2019-02-16T15:00:53.899Z,21.33
2019-02-16T15:03:22.369Z,27.33
2019-02-16T15:05:50.803Z,22.10
2019-02-16T15:11:06.778Z,21.83
2019-02-16T15:13:35.215Z,27.53
2019-02-16T15:18:51.145Z,25.07
2019-02-16T15:21:19.579Z,18.77
2019-02-16T15:23:48.014Z,23.13
2019-02-16T15:26:16.591Z,24.53
2019-02-16T15:28:45.028Z,24.73
2019-02-16T15:31:13.465Z,20.73
2019-02-16T15:33:41.927Z,25.43
2019-02-16T15:36:10.714Z,23.40
2019-02-16T15:38:39.154Z,24.70
2019-02-16T15:41:07.625Z,26.60
2019-02-16T15:43:36.361Z,27.43
2019-02-16T15:48:52.423Z,21.90
2019-02-16T15:51:20.858Z,24.23
2019-02-16T15:53:49.641Z,21.30
2019-02-16T15:56:18.431Z,25.73
2019-02-16T15:58:46.939Z,30.53
2019-02-16T16:01:15.405Z,26.63
2019-02-16T16:03:43.871Z,27.97
2019-02-16T16:06:12.305Z,25.20
2019-02-16T16:08:42.381Z,24.63
2019-02-16T16:11:21.382Z,21.57
2019-02-16T16:13:54.193Z,30.80
2019-02-16T16:16:39.301Z,33.07
2019-02-16T16:19:11.826Z,31.30
2019-02-16T16:21:44.636Z,26.80
2019-02-16T16:24:32.603Z,26.23
2019-02-16T16:27:05.625Z,23.70
2019-02-16T16:29:44.810Z,31.03
2019-02-16T16:32:32.834Z,26.53
2019-02-16T16:35:02.909Z,23.50
2019-02-16T16:37:36.068Z,30.13
2019-02-16T16:40:06.920Z,22.10
2019-02-16T16:42:52.867Z,22.73
2019-02-16T16:45:22.994Z,25.23
2019-02-16T16:48:09.469Z,20.90
2019-02-16T16:50:56.106Z,24.00
2019-02-16T16:53:42.677Z,23.63
2019-02-16T16:56:28.170Z,24.80
2019-02-16T16:58:53.747Z,27.70
2019-02-16T17:01:24.108Z,21.73
2019-02-16T17:04:10.762Z,31.60
2019-02-16T17:06:40.954Z,26.90
2019-02-16T17:09:14.791Z,27.37
2019-02-16T17:11:57.137Z,26.43
2019-02-16T17:14:27.218Z,22.27
2019-02-16T17:16:59.327Z,29.70
2019-02-16T17:19:29.503Z,27.93
2019-02-16T17:22:02.416Z,51.73
2019-02-16T17:24:35.221Z,30.37
2019-02-16T17:27:08.056Z,33.37
2019-02-16T17:29:41.124Z,34.10
2019-02-16T17:32:11.192Z,32.43
2019-02-16T17:34:50.373Z,23.37
2019-02-16T17:37:20.536Z,46.30
2019-02-16T17:39:56.497Z,37.10
2019-02-16T17:42:29.227Z,35.30
2019-02-16T17:45:02.458Z,34.30
2019-02-16T17:47:50.554Z,34.80
2019-02-16T17:50:23.650Z,26.40
2019-02-16T17:53:11.795Z,28.77
2019-02-16T17:55:44.496Z,27.87
2019-02-16T17:58:17.561Z,28.37
2019-02-16T18:00:56.634Z,23.13
2019-02-16T18:03:26.708Z,31.87
2019-02-16T18:06:08.859Z,26.53
2019-02-16T18:08:47.865Z,27.53
2019-02-16T18:11:20.664Z,31.03
2019-02-16T18:14:08.969Z,31.87
2019-02-16T18:16:55.707Z,26.50
2019-02-16T18:19:31.529Z,27.27
2019-02-16T18:22:20.028Z,24.07
2019-02-16T18:25:06.645Z,23.43
2019-02-16T18:27:53.101Z,28.70
2019-02-16T18:30:28.748Z,33.03
2019-02-16T18:33:14.958Z,35.27
2019-02-16T18:35:54.178Z,29.07
2019-02-16T18:38:27.084Z,33.17
2019-02-16T18:41:00.053Z,38.27
2019-02-16T18:43:30.157Z,56.37
2019-02-16T18:46:00.321Z,64.23
2019-02-16T18:48:36.460Z,70.23
2019-02-16T18:51:06.631Z,75.43
2019-02-16T18:53:49.402Z,75.23
2019-02-16T18:56:35.646Z,66.70
2019-02-16T18:59:06.228Z,63.57
2019-02-16T19:01:38.718Z,56.83
2019-02-16T19:04:08.915Z,55.67
2019-02-16T19:06:39.092Z,60.97
2019-02-16T19:09:12.203Z,57.17
2019-02-16T19:11:48.364Z,57.07
2019-02-16T19:14:24.251Z,66.00
2019-02-16T19:16:54.369Z,54.80
2019-02-16T19:19:24.519Z,48.97
2019-02-16T19:21:57.375Z,49.47
2019-02-16T19:24:39.272Z,44.07
2019-02-16T19:27:16.461Z,39.00
2019-02-16T19:29:59.979Z,44.27
2019-02-16T19:32:36.137Z,43.43
2019-02-16T19:35:23.420Z,45.63
2019-02-16T19:37:59.196Z,40.47
2019-02-16T19:40:31.868Z,42.40
2019-02-16T19:43:13.927Z,39.20
2019-02-16T19:45:44.147Z,37.83
2019-02-16T19:48:16.665Z,32.50
2019-02-16T19:50:49.255Z,33.00
2019-02-16T19:53:19.373Z,32.40
2019-02-16T19:56:05.802Z,34.90
2019-02-16T19:58:45.117Z,27.17
2019-02-16T20:01:18.559Z,39.30
2019-02-16T20:04:03.828Z,29.53
2019-02-16T20:06:46.505Z,34.97
2019-02-16T20:09:28.831Z,32.97
2019-02-16T20:12:02.529Z,25.13
2019-02-16T20:14:49.250Z,30.60
2019-02-16T20:17:35.859Z,29.90
2019-02-16T20:20:08.209Z,40.03
2019-02-16T20:22:38.383Z,39.43
2019-02-16T20:25:17.714Z,33.93
2019-02-16T20:27:48.029Z,34.63
2019-02-16T20:30:33.223Z,30.53
2019-02-16T20:33:03.562Z,29.03
2019-02-16T20:35:39.887Z,33.07
2019-02-16T20:38:21.738Z,29.37
2019-02-16T20:40:54.670Z,24.57
2019-02-16T20:43:41.332Z,27.20
2019-02-16T20:46:11.549Z,36.57
2019-02-16T20:48:59.096Z,25.37
2019-02-16T20:51:41.342Z,33.17
2019-02-16T20:54:23.633Z,30.47
2019-02-16T20:56:59.784Z,29.33
2019-02-16T20:59:30.333Z,32.03
2019-02-16T21:02:17.010Z,39.97
2019-02-16T21:04:50.558Z,38.73
2019-02-16T21:07:32.832Z,42.43
2019-02-16T21:10:02.954Z,45.77
2019-02-16T21:12:41.683Z,32.70
2019-02-16T21:15:14.636Z,42.07
2019-02-16T21:17:47.990Z,28.43
2019-02-16T21:20:18.194Z,36.93
2019-02-16T21:23:06.246Z,30.83
2019-02-16T21:25:36.448Z,34.10
2019-02-16T21:28:06.745Z,28.80
2019-02-16T21:30:46.206Z,38.43
2019-02-16T21:33:25.117Z,30.13
2019-02-16T21:36:02.198Z,34.20
2019-02-16T21:38:32.675Z,32.10
2019-02-16T21:41:18.569Z,36.87
2019-02-16T21:43:48.791Z,35.37
2019-02-16T21:46:18.867Z,33.30
2019-02-16T21:48:48.984Z,34.73
2019-02-16T21:51:22.037Z,30.93
2019-02-16T21:53:52.192Z,31.63
2019-02-16T21:56:31.949Z,27.97
2019-02-16T21:59:19.520Z,30.03
2019-02-16T22:01:56.154Z,21.73
2019-02-16T22:04:29.232Z,31.80
2019-02-16T22:06:59.309Z,36.37
2019-02-16T22:09:29.761Z,35.43
2019-02-16T22:12:15.837Z,29.70
2019-02-16T22:14:44.313Z,26.03
2019-02-16T22:17:12.737Z,27.20
2019-02-16T22:19:41.164Z,31.53
2019-02-16T22:22:10.010Z,32.80
2019-02-16T22:24:38.538Z,26.90
2019-02-16T22:27:06.965Z,30.93
2019-02-16T22:29:35.420Z,30.40
2019-02-16T22:32:03.933Z,22.70
2019-02-16T22:34:32.366Z,27.10
2019-02-16T22:37:01.181Z,27.97
2019-02-16T22:39:29.625Z,22.93
2019-02-16T22:41:58.057Z,31.80
2019-02-16T22:44:26.521Z,29.80
2019-02-16T22:46:54.952Z,33.43
2019-02-16T22:49:23.452Z,28.53
2019-02-16T22:51:51.957Z,23.13
2019-02-16T22:54:20.458Z,24.17
2019-02-16T22:56:48.898Z,26.00
2019-02-16T22:59:17.371Z,32.70
2019-02-16T23:01:45.972Z,25.40
2019-02-16T23:04:14.403Z,29.67
2019-02-16T23:06:42.939Z,29.87
2019-02-16T23:09:13.081Z,41.20
2019-02-16T23:11:41.610Z,31.20
2019-02-16T23:14:10.169Z,30.87
2019-02-16T23:16:38.673Z,33.53
2019-02-16T23:19:07.548Z,30.13
2019-02-16T23:21:36.098Z,30.13
2019-02-16T23:24:04.761Z,33.37
2019-02-16T23:26:33.197Z,24.40
2019-02-16T23:29:01.667Z,25.60
2019-02-16T23:31:30.741Z,25.30
2019-02-16T23:33:59.173Z,25.40
2019-02-16T23:36:28.039Z,28.57
2019-02-16T23:38:56.801Z,30.70
2019-02-16T23:41:25.434Z,35.50
2019-02-16T23:43:53.896Z,27.03
2019-02-16T23:46:22.328Z,32.03
2019-02-16T23:48:51.133Z,31.43
2019-02-16T23:51:19.597Z,31.20
2019-02-16T23:53:48.100Z,29.43
2019-02-16T23:56:16.563Z,25.57
2019-02-16T23:58:49.177Z,23.13
